Time;durP1;ratioP1;P1;durP2;ratioP2;P2;SDS_P1;SDS_P2;PMS_P1;PMS_P2;Temp;Humidity;BMP_temperature;BMP_pressure;BME280_temperature;BME280_humidity;BME280_pressure;Samples;Min_cycle;Max_cycle;Signal;HPM_P1;HPM_P2
2023/08/08 00:00:47;;;;;;;1.33;1.23;;;13.00;99.90;;;;;;5114338;27;20047;-69
2023/08/08 00:03:13;;;;;;;0.35;0.35;;;13.00;99.90;;;;;;5118061;27;20070;-69
2023/08/08 00:05:38;;;;;;;1.77;1.20;;;13.10;99.90;;;;;;5118383;27;20039;-70
2023/08/08 00:08:04;;;;;;;0.98;0.47;;;13.10;99.90;;;;;;5118056;27;20039;-68
2023/08/08 00:10:30;;;;;;;0.80;0.40;;;13.10;99.90;;;;;;5117903;27;20038;-69
2023/08/08 00:12:55;;;;;;;0.40;0.40;;;13.10;99.90;;;;;;5118787;27;20035;-69
2023/08/08 00:15:21;;;;;;;0.10;0.10;;;13.10;99.90;;;;;;5118108;27;20050;-69
2023/08/08 00:17:47;;;;;;;0.38;0.30;;;13.10;99.90;;;;;;5117641;27;20034;-70
2023/08/08 00:20:12;;;;;;;0.57;0.50;;;13.10;99.90;;;;;;5117781;27;20077;-69
2023/08/08 00:22:38;;;;;;;1.70;0.55;;;13.10;99.90;;;;;;5117768;27;20051;-69
2023/08/08 00:25:04;;;;;;;0.60;0.25;;;13.10;99.90;;;;;;5117885;27;20080;-70
2023/08/08 00:27:29;;;;;;;1.17;0.90;;;13.10;99.90;;;;;;5117679;27;20039;-69
2023/08/08 00:29:55;;;;;;;0.47;0.30;;;13.20;99.90;;;;;;5117628;27;20046;-70
2023/08/08 00:32:21;;;;;;;2.45;0.40;;;13.20;99.90;;;;;;5117618;27;20050;-70
2023/08/08 00:34:46;;;;;;;1.35;0.75;;;13.20;99.90;;;;;;5117545;27;20390;-69
2023/08/08 00:37:12;;;;;;;2.53;0.95;;;13.20;99.90;;;;;;5117547;27;20102;-69
2023/08/08 00:39:39;;;;;;;0.52;0.52;;;13.20;99.90;;;;;;5117440;27;20039;-69
2023/08/08 00:42:04;;;;;;;0.68;0.68;;;13.20;99.90;;;;;;5107659;27;20044;-69
2023/08/08 00:44:30;;;;;;;0.30;0.30;;;13.20;99.90;;;;;;5105356;28;20474;-69
2023/08/08 00:46:56;;;;;;;2.08;0.98;;;13.20;99.90;;;;;;5118090;27;20035;-68
2023/08/08 00:49:22;;;;;;;0.43;0.43;;;13.30;99.90;;;;;;5100218;28;20047;-69
2023/08/08 00:51:48;;;;;;;0.57;0.57;;;13.30;99.90;;;;;;5105994;27;20043;-69
2023/08/08 00:54:14;;;;;;;0.50;0.50;;;13.20;99.90;;;;;;5127052;27;20046;-69
2023/08/08 00:56:39;;;;;;;1.13;0.93;;;13.30;99.90;;;;;;5113046;27;20047;-69
2023/08/08 00:59:07;;;;;;;4.32;0.80;;;13.30;99.90;;;;;;5117147;27;20035;-70
2023/08/08 01:01:33;;;;;;;0.38;0.38;;;13.30;99.90;;;;;;5116422;27;20081;-70
2023/08/08 01:04:00;;;;;;;0.65;0.65;;;13.30;99.90;;;;;;5116906;27;20070;-70
2023/08/08 01:06:37;;;;;;;0.43;0.43;;;13.30;99.90;;;;;;5117207;27;20114;-70
2023/08/08 01:09:25;;;;;;;0.20;0.20;;;13.30;99.90;;;;;;5116930;27;20035;-70
2023/08/08 01:11:51;;;;;;;0.22;0.22;;;13.30;99.90;;;;;;5116557;27;20046;-70
2023/08/08 01:17:58;;;;;;;1.48;0.43;;;13.40;99.90;;;;;;5135173;27;20034;-69
2023/08/08 01:20:24;;;;;;;0.20;0.20;;;13.40;99.90;;;;;;5116469;27;20486;-69
2023/08/08 01:26:31;;;;;;;0.30;0.30;;;13.40;99.90;;;;;;5135112;27;20086;-70
2023/08/08 01:28:57;;;;;;;0.20;0.20;;;13.40;99.90;;;;;;5116809;27;20116;-69
2023/08/08 01:31:23;;;;;;;6.75;0.40;;;13.50;99.90;;;;;;5116568;28;20073;-70
2023/08/08 01:33:48;;;;;;;0.22;0.22;;;13.50;99.90;;;;;;5116405;27;20098;-69
2023/08/08 01:36:24;;;;;;;0.10;0.10;;;13.50;99.90;;;;;;5116436;27;20130;-70
2023/08/08 01:42:31;;;;;;;1.73;0.82;;;13.50;99.90;;;;;;5134828;27;20038;-70
2023/08/08 01:44:57;;;;;;;7.03;0.98;;;13.50;99.90;;;;;;5116203;27;20477;-70
2023/08/08 01:47:23;;;;;;;1.73;0.38;;;13.60;99.90;;;;;;5116271;27;20035;-70
2023/08/08 01:49:48;;;;;;;0.75;0.75;;;13.60;99.90;;;;;;5116549;28;20071;-70
2023/08/08 01:52:14;;;;;;;0.65;0.32;;;13.60;99.90;;;;;;5109864;28;20038;-69
2023/08/08 01:54:42;;;;;;;0.68;0.47;;;13.60;99.90;;;;;;5095861;28;20036;-70
2023/08/08 01:57:07;;;;;;;1.02;0.73;;;13.60;99.90;;;;;;5095818;28;20048;-69
2023/08/08 01:59:33;;;;;;;1.02;0.70;;;13.70;99.90;;;;;;5109768;28;20035;-69
2023/08/08 02:01:58;;;;;;;1.00;0.68;;;13.70;99.90;;;;;;5116131;28;20039;-70
2023/08/08 02:04:38;;;;;;;0.60;0.20;;;13.70;99.90;;;;;;5114405;28;20417;-70
2023/08/08 02:07:04;;;;;;;16.90;1.08;;;13.70;99.90;;;;;;5132981;27;20050;-69
2023/08/08 02:09:29;;;;;;;0.30;0.30;;;13.70;99.90;;;;;;5115060;28;20036;-69
2023/08/08 02:11:55;;;;;;;1.35;0.20;;;13.80;99.90;;;;;;5111381;27;20035;-70
2023/08/08 02:14:21;;;;;;;0.20;0.20;;;13.70;99.90;;;;;;5118828;27;20169;-70
2023/08/08 02:16:46;;;;;;;0.55;0.30;;;13.80;99.90;;;;;;5104354;28;20040;-70
2023/08/08 02:19:12;;;;;;;0.77;0.73;;;13.80;99.90;;;;;;5123208;27;20354;-69
2023/08/08 02:21:37;;;;;;;1.02;0.73;;;13.80;99.90;;;;;;5105939;28;20047;-70
2023/08/08 02:24:03;;;;;;;0.28;0.28;;;13.70;99.90;;;;;;5127224;27;20116;-70
2023/08/08 02:26:29;;;;;;;0.57;0.30;;;13.80;99.90;;;;;;5120265;27;20123;-70
2023/08/08 02:28:54;;;;;;;0.45;0.38;;;13.80;99.90;;;;;;5116899;27;20037;-70
2023/08/08 02:31:20;;;;;;;4.47;0.60;;;13.80;99.90;;;;;;5119234;27;20501;-71
2023/08/08 02:34:03;;;;;;;1.52;0.60;;;13.80;99.90;;;;;;5117098;27;20489;-69
2023/08/08 02:36:29;;;;;;;0.38;0.38;;;13.80;99.90;;;;;;5118964;27;20031;-70
2023/08/08 02:38:55;;;;;;;1.05;0.60;;;13.80;99.90;;;;;;5108816;28;20046;-70
2023/08/08 02:41:20;;;;;;;0.20;0.20;;;13.70;99.90;;;;;;5099004;28;20401;-69
2023/08/08 02:43:46;;;;;;;0.63;0.40;;;13.70;99.90;;;;;;5098998;28;20032;-70
2023/08/08 02:46:52;;;;;;;1.08;0.98;;;13.70;99.90;;;;;;5106421;28;20031;-70
2023/08/08 02:49:18;;;;;;;1.40;1.35;;;13.60;99.90;;;;;;5108471;27;20039;-68
2023/08/08 02:51:44;;;;;;;0.20;0.20;;;13.60;99.90;;;;;;5108113;27;20027;-71
2023/08/08 02:54:09;;;;;;;0.50;0.50;;;13.60;99.90;;;;;;5115172;27;20139;-69
2023/08/08 02:56:35;;;;;;;1.45;0.47;;;13.50;99.90;;;;;;5127674;27;20466;-69
2023/08/08 02:59:07;;;;;;;0.20;0.20;;;13.50;99.90;;;;;;5107396;27;20040;-69
2023/08/08 03:01:37;;;;;;;0.20;0.20;;;13.40;99.90;;;;;;5104087;27;20126;-70
2023/08/08 03:04:03;;;;;;;0.32;0.32;;;13.40;99.90;;;;;;5126207;27;20039;-70
2023/08/08 03:06:29;;;;;;;1.00;0.73;;;13.40;99.90;;;;;;5109426;27;20027;-70
2023/08/08 03:08:54;;;;;;;0.57;0.57;;;13.40;99.90;;;;;;5113737;27;20039;-70
2023/08/08 03:11:20;;;;;;;0.65;0.47;;;13.40;99.90;;;;;;5134297;27;20057;-70
2023/08/08 03:13:46;;;;;;;0.17;0.17;;;13.50;99.90;;;;;;5112613;28;20050;-69
2023/08/08 03:16:12;;;;;;;0.15;0.15;;;13.40;99.90;;;;;;5108995;27;20397;-70
2023/08/08 03:18:37;;;;;;;0.60;0.60;;;13.40;99.90;;;;;;5105110;28;20041;-69
2023/08/08 03:21:03;;;;;;;1.23;0.20;;;13.40;99.90;;;;;;5112413;27;20539;-68
2023/08/08 03:23:29;;;;;;;1.33;0.52;;;13.40;99.90;;;;;;5110867;27;20126;-69
2023/08/08 03:25:54;;;;;;;0.40;0.40;;;13.40;99.90;;;;;;5101666;27;20040;-70
2023/08/08 03:28:20;;;;;;;0.15;0.15;;;13.50;99.90;;;;;;5104899;27;20038;-69
2023/08/08 03:30:45;;;;;;;0.15;0.10;;;13.50;99.90;;;;;;5111491;27;20066;-68
2023/08/08 03:33:11;;;;;;;5.88;0.82;;;13.50;99.90;;;;;;5099923;27;20065;-69
2023/08/08 03:35:45;;;;;;;0.20;0.20;;;13.50;99.90;;;;;;5104533;27;20064;-68
2023/08/08 03:38:11;;;;;;;0.10;0.10;;;13.50;99.90;;;;;;5119193;27;20409;-68
2023/08/08 03:40:37;;;;;;;0.10;0.10;;;13.50;99.90;;;;;;5107932;27;20054;-71
2023/08/08 03:43:02;;;;;;;0.60;0.60;;;13.50;99.90;;;;;;5105836;27;20031;-67
2023/08/08 03:45:29;;;;;;;0.88;0.43;;;13.60;99.90;;;;;;5103358;27;20055;-69
2023/08/08 03:47:54;;;;;;;0.22;0.22;;;13.50;99.90;;;;;;5106135;27;20390;-70
2023/08/08 03:50:20;;;;;;;1.10;1.10;;;13.60;99.90;;;;;;5121500;27;20031;-70
2023/08/08 03:52:48;;;;;;;0.30;0.30;;;13.60;99.90;;;;;;5100675;27;20351;-69
2023/08/08 03:55:13;;;;;;;0.20;0.20;;;13.60;99.90;;;;;;5112831;27;20031;-68
2023/08/08 03:57:39;;;;;;;0.20;0.20;;;13.60;99.90;;;;;;5134501;27;20439;-68
2023/08/08 04:00:08;;;;;;;0.20;0.20;;;13.60;99.90;;;;;;5104919;27;20494;-68
2023/08/08 04:02:33;;;;;;;0.30;0.30;;;13.50;99.90;;;;;;5101876;27;20054;-68
2023/08/08 04:04:59;;;;;;;0.10;0.10;;;13.50;99.90;;;;;;5106191;27;20035;-69
2023/08/08 04:07:24;;;;;;;1.48;0.70;;;13.50;99.90;;;;;;5132805;27;20063;-69
2023/08/08 04:09:50;;;;;;;0.52;0.22;;;13.50;99.90;;;;;;5106696;27;20507;-69
2023/08/08 04:12:15;;;;;;;0.28;0.25;;;13.50;99.90;;;;;;5102912;27;20035;-69
2023/08/08 04:14:41;;;;;;;0.10;0.10;;;13.40;99.90;;;;;;5138816;27;20048;-68
2023/08/08 04:17:07;;;;;;;3.10;0.28;;;13.40;99.90;;;;;;5118539;27;20066;-68
2023/08/08 04:19:32;;;;;;;1.85;0.20;;;13.40;99.90;;;;;;5112634;27;20042;-69
2023/08/08 04:21:58;;;;;;;0.00;0.00;;;13.40;99.90;;;;;;5113678;27;20134;-68
2023/08/08 04:24:25;;;;;;;1.02;0.70;;;13.40;99.90;;;;;;5102582;27;20031;-69
2023/08/08 04:26:50;;;;;;;0.98;0.22;;;13.40;99.90;;;;;;5104792;27;21264;-68
2023/08/08 04:29:16;;;;;;;0.20;0.20;;;13.40;99.90;;;;;;5103043;27;20035;-68
2023/08/08 04:31:43;;;;;;;0.88;0.50;;;13.40;99.90;;;;;;5108874;27;20027;-69
2023/08/08 04:34:09;;;;;;;0.63;0.25;;;13.40;99.90;;;;;;5112373;27;20139;-68
2023/08/08 04:36:35;;;;;;;0.60;0.60;;;13.40;99.90;;;;;;5103230;27;20129;-69
2023/08/08 04:39:00;;;;;;;0.10;0.10;;;13.40;99.90;;;;;;5106858;27;20067;-69
2023/08/08 04:41:26;;;;;;;0.30;0.30;;;13.40;99.90;;;;;;5113189;27;20046;-69
2023/08/08 04:43:51;;;;;;;0.08;0.08;;;13.40;99.90;;;;;;5110668;27;20371;-69
2023/08/08 04:46:17;;;;;;;0.10;0.10;;;13.40;99.90;;;;;;5114792;27;20125;-68
2023/08/08 04:48:55;;;;;;;0.10;0.10;;;13.50;99.90;;;;;;5113309;27;20080;-68
2023/08/08 04:51:21;;;;;;;0.57;0.30;;;13.50;99.90;;;;;;5103145;27;20064;-69
2023/08/08 04:53:46;;;;;;;0.77;0.55;;;13.50;99.90;;;;;;5107407;28;20036;-69
2023/08/08 04:56:12;;;;;;;3.78;0.45;;;13.60;99.90;;;;;;5097231;27;20047;-68
2023/08/08 04:58:37;;;;;;;0.20;0.20;;;13.60;99.90;;;;;;5108852;27;20378;-69
2023/08/08 05:01:03;;;;;;;0.47;0.20;;;13.60;99.90;;;;;;5105449;27;20371;-69
2023/08/08 05:03:29;;;;;;;1.05;0.15;;;13.60;99.90;;;;;;5102983;27;20114;-69
2023/08/08 05:05:54;;;;;;;0.10;0.10;;;13.60;99.90;;;;;;5108393;27;20080;-69
2023/08/08 05:08:20;;;;;;;0.10;0.10;;;13.60;99.90;;;;;;5107359;27;20027;-69
2023/08/08 05:10:45;;;;;;;0.00;0.00;;;13.60;99.90;;;;;;5112410;27;20554;-70
2023/08/08 05:13:13;;;;;;;0.28;0.28;;;13.60;99.90;;;;;;5107830;27;20464;-69
2023/08/08 05:15:38;;;;;;;2.10;1.13;;;13.60;99.90;;;;;;5109085;27;20031;-68
2023/08/08 05:18:04;;;;;;;0.20;0.20;;;13.60;99.90;;;;;;5097360;28;20363;-68
2023/08/08 05:20:39;;;;;;;0.20;0.20;;;13.60;99.90;;;;;;5107009;27;20042;-68
2023/08/08 05:23:05;;;;;;;6.78;0.70;;;13.60;99.90;;;;;;5114138;27;20480;-69
2023/08/08 05:25:30;;;;;;;0.70;0.28;;;13.60;99.90;;;;;;5096324;28;20043;-69
2023/08/08 05:27:56;;;;;;;0.90;0.60;;;13.70;99.90;;;;;;5103340;28;20043;-69
2023/08/08 05:30:22;;;;;;;0.10;0.10;;;13.70;99.90;;;;;;5109826;27;20039;-69
2023/08/08 05:32:47;;;;;;;0.10;0.10;;;13.70;99.90;;;;;;5116183;27;20039;-69
2023/08/08 05:35:13;;;;;;;0.20;0.20;;;13.70;99.90;;;;;;5116457;27;20116;-70
2023/08/08 05:37:39;;;;;;;0.10;0.10;;;13.70;99.90;;;;;;5116496;27;20500;-68
2023/08/08 05:40:07;;;;;;;0.08;0.08;;;13.70;99.90;;;;;;5116437;27;20427;-69
2023/08/08 05:42:33;;;;;;;0.38;0.38;;;13.70;99.90;;;;;;5116298;27;20046;-70
2023/08/08 05:44:59;;;;;;;0.15;0.15;;;13.70;99.90;;;;;;5116240;28;20450;-70
2023/08/08 05:51:06;;;;;;;0.10;0.10;;;13.60;99.90;;;;;;5115430;27;20513;-69
2023/08/08 05:53:32;;;;;;;0.00;0.00;;;13.80;99.90;;;;;;5104119;28;20069;-69
2023/08/08 05:55:58;;;;;;;0.10;0.10;;;13.90;99.90;;;;;;5104495;28;20091;-70
2023/08/08 05:58:24;;;;;;;0.10;0.10;;;14.00;99.90;;;;;;5115008;27;20122;-69
2023/08/08 06:00:50;;;;;;;0.38;0.38;;;14.00;99.90;;;;;;5091723;28;20123;-69
2023/08/08 06:03:15;;;;;;;0.10;0.10;;;14.00;99.90;;;;;;5101729;28;20434;-69
2023/08/08 06:05:41;;;;;;;0.10;0.10;;;13.90;99.90;;;;;;5100497;28;20043;-69
2023/08/08 06:08:11;;;;;;;0.20;0.20;;;14.00;99.90;;;;;;5109278;28;20027;-70
2023/08/08 06:10:37;;;;;;;0.10;0.10;;;14.20;99.90;;;;;;5106391;28;20043;-69
2023/08/08 06:13:02;;;;;;;0.00;0.00;;;14.30;99.90;;;;;;5107150;28;20036;-68
2023/08/08 06:15:29;;;;;;;0.30;0.30;;;14.50;99.90;;;;;;5113014;28;20039;-67
2023/08/08 06:17:55;;;;;;;0.10;0.10;;;14.70;99.90;;;;;;5107524;28;20134;-70
2023/08/08 06:20:21;;;;;;;0.15;0.15;;;14.80;99.90;;;;;;5108661;28;20118;-71
2023/08/08 06:22:47;;;;;;;0.20;0.20;;;14.90;99.90;;;;;;5098227;28;20712;-70
2023/08/08 06:25:13;;;;;;;0.68;0.28;;;15.00;99.90;;;;;;5116040;28;20146;-71
2023/08/08 06:27:39;;;;;;;0.17;0.17;;;15.10;99.90;;;;;;5105727;28;20067;-69
2023/08/08 06:30:08;;;;;;;0.10;0.10;;;15.20;99.90;;;;;;5106630;28;20513;-69
2023/08/08 06:32:34;;;;;;;0.63;0.28;;;15.20;99.90;;;;;;5096406;28;20058;-71
2023/08/08 06:34:59;;;;;;;0.22;0.22;;;15.30;99.90;;;;;;5117749;28;20036;-68
2023/08/08 06:37:25;;;;;;;0.43;0.13;;;15.40;99.90;;;;;;5101425;28;20039;-71
2023/08/08 06:39:51;;;;;;;0.10;0.10;;;15.50;99.90;;;;;;5115609;27;20043;-70
2023/08/08 06:42:16;;;;;;;0.65;0.52;;;15.50;99.90;;;;;;5124895;28;20035;-70
2023/08/08 06:44:43;;;;;;;10.05;0.30;;;15.60;99.90;;;;;;5095595;28;20035;-70
2023/08/08 06:47:09;;;;;;;0.10;0.10;;;15.70;99.90;;;;;;5099062;28;20406;-73
2023/08/08 06:49:35;;;;;;;0.10;0.10;;;15.70;99.90;;;;;;5097550;28;20031;-70
2023/08/08 06:52:00;;;;;;;0.47;0.30;;;15.70;99.90;;;;;;5116626;27;20035;-69
2023/08/08 06:54:28;;;;;;;6.60;0.28;;;15.80;99.90;;;;;;5094889;28;20119;-69
2023/08/08 06:56:56;;;;;;;0.00;0.00;;;15.80;99.90;;;;;;5107614;28;20043;-70
2023/08/08 06:59:22;;;;;;;0.65;0.20;;;15.90;99.90;;;;;;5102461;28;20426;-71
2023/08/08 07:01:48;;;;;;;0.10;0.10;;;16.00;99.90;;;;;;5107147;27;20039;-69
2023/08/08 07:04:14;;;;;;;0.65;0.65;;;16.00;99.90;;;;;;5106544;27;20122;-71
2023/08/08 07:06:40;;;;;;;0.10;0.10;;;16.10;99.90;;;;;;5079788;28;20118;-72
2023/08/08 07:09:10;;;;;;;0.28;0.28;;;16.10;99.90;;;;;;5112462;27;20479;-71
2023/08/08 07:11:36;;;;;;;0.73;0.73;;;16.20;99.90;;;;;;5102464;27;20031;-71
2023/08/08 07:14:01;;;;;;;4.38;0.35;;;16.20;99.90;;;;;;5100638;27;20119;-71
2023/08/08 07:16:28;;;;;;;3.10;0.32;;;16.20;99.90;;;;;;5101660;27;20055;-69
2023/08/08 07:18:54;;;;;;;0.10;0.10;;;16.20;99.90;;;;;;5097876;28;20104;-72
2023/08/08 07:21:20;;;;;;;0.10;0.10;;;16.30;99.90;;;;;;5082386;28;20481;-72
2023/08/08 07:23:45;;;;;;;0.40;0.40;;;16.30;99.90;;;;;;5100172;27;20036;-71
2023/08/08 07:26:12;;;;;;;0.63;0.63;;;16.30;99.90;;;;;;5102401;27;20042;-69
2023/08/08 07:28:38;;;;;;;0.10;0.10;;;16.40;99.90;;;;;;5112100;27;20043;-72
2023/08/08 07:31:03;;;;;;;0.55;0.55;;;16.40;99.90;;;;;;5110692;27;20393;-69
2023/08/08 07:33:29;;;;;;;0.10;0.10;;;16.50;99.90;;;;;;5105698;27;20405;-70
2023/08/08 07:35:55;;;;;;;0.32;0.32;;;16.60;99.90;;;;;;5111131;27;20058;-71
2023/08/08 07:38:20;;;;;;;0.68;0.30;;;16.70;99.90;;;;;;5104000;27;20042;-71
2023/08/08 07:40:47;;;;;;;1.30;0.57;;;16.80;99.90;;;;;;5094531;28;20050;-70
2023/08/08 07:43:17;;;;;;;0.55;0.55;;;16.80;99.90;;;;;;5119233;27;20525;-67
2023/08/08 07:45:43;;;;;;;0.00;0.00;;;16.80;99.90;;;;;;5105800;27;20035;-69
2023/08/08 07:48:08;;;;;;;0.10;0.10;;;16.70;99.90;;;;;;5106947;27;20513;-68
2023/08/08 07:50:39;;;;;;;0.65;0.65;;;16.60;99.90;;;;;;5113178;27;20061;-67
2023/08/08 07:53:04;;;;;;;0.15;0.15;;;16.60;99.90;;;;;;5102712;27;20478;-68
2023/08/08 07:55:31;;;;;;;0.10;0.10;;;16.60;99.90;;;;;;5107188;27;20049;-69
2023/08/08 07:57:56;;;;;;;0.20;0.20;;;16.50;99.90;;;;;;5096881;27;20035;-68
2023/08/08 08:00:22;;;;;;;0.20;0.20;;;16.50;99.90;;;;;;5115183;27;20092;-68
2023/08/08 08:02:48;;;;;;;0.10;0.10;;;16.40;99.90;;;;;;5111664;27;20335;-70
2023/08/08 08:05:14;;;;;;;0.10;0.10;;;16.40;99.90;;;;;;5098521;27;20078;-69
2023/08/08 08:07:40;;;;;;;0.10;0.10;;;16.40;99.90;;;;;;5125046;27;20035;-66
2023/08/08 08:10:09;;;;;;;0.20;0.10;;;16.50;99.90;;;;;;5099045;27;20031;-68
2023/08/08 08:12:35;;;;;;;0.10;0.10;;;16.50;99.90;;;;;;5113224;27;20061;-68
2023/08/08 08:15:02;;;;;;;0.10;0.10;;;16.50;99.90;;;;;;5099497;27;20083;-69
2023/08/08 08:17:28;;;;;;;0.30;0.30;;;16.60;99.90;;;;;;5113238;27;20050;-70
2023/08/08 08:19:58;;;;;;;0.10;0.10;;;16.60;99.90;;;;;;5101190;27;20046;-66
2023/08/08 08:22:24;;;;;;;0.38;0.38;;;16.60;99.90;;;;;;5112305;27;20069;-67
2023/08/08 08:24:50;;;;;;;0.68;0.30;;;16.70;99.90;;;;;;5108780;27;20039;-69
2023/08/08 08:27:17;;;;;;;0.13;0.13;;;16.70;99.90;;;;;;5102042;27;20419;-68
2023/08/08 08:29:43;;;;;;;4.72;0.70;;;16.80;99.90;;;;;;5102917;27;20636;-70
2023/08/08 08:32:08;;;;;;;0.00;0.00;;;16.80;99.90;;;;;;5107381;27;20386;-67
2023/08/08 08:34:34;;;;;;;0.10;0.10;;;16.90;99.90;;;;;;5103809;27;21391;-67
2023/08/08 08:37:00;;;;;;;0.10;0.10;;;16.90;99.90;;;;;;5102014;27;20043;-69
2023/08/08 08:39:25;;;;;;;0.15;0.15;;;16.90;99.90;;;;;;5105129;27;20039;-68
2023/08/08 08:41:58;;;;;;;0.30;0.10;;;16.90;99.90;;;;;;5113231;27;20039;-68
2023/08/08 08:44:26;;;;;;;0.10;0.10;;;16.90;99.90;;;;;;5100264;28;20485;-67
2023/08/08 08:46:55;;;;;;;0.10;0.10;;;16.90;99.90;;;;;;5115328;27;20039;-70
2023/08/08 08:49:22;;;;;;;0.20;0.20;;;16.90;99.90;;;;;;5098861;27;20123;-68
2023/08/08 08:51:48;;;;;;;1.73;0.35;;;16.90;99.90;;;;;;5095557;27;20182;-70
2023/08/08 08:54:14;;;;;;;0.15;0.15;;;16.80;99.90;;;;;;5103901;27;20475;-67
2023/08/08 08:56:41;;;;;;;0.10;0.10;;;16.70;99.90;;;;;;5113366;27;20051;-67
2023/08/08 08:59:08;;;;;;;0.10;0.10;;;16.70;99.90;;;;;;5092017;27;20032;-68
2023/08/08 09:01:33;;;;;;;0.00;0.00;;;16.70;99.90;;;;;;5103923;27;20043;-68
2023/08/08 09:03:59;;;;;;;0.40;0.20;;;16.80;99.90;;;;;;5130563;27;20409;-68
2023/08/08 09:06:26;;;;;;;0.08;0.08;;;16.90;99.90;;;;;;5102647;27;20039;-68
2023/08/08 09:08:52;;;;;;;0.25;0.25;;;16.80;99.90;;;;;;5095479;28;20118;-69
2023/08/08 09:11:17;;;;;;;0.00;0.00;;;17.00;99.90;;;;;;5113915;27;20187;-69
2023/08/08 09:13:43;;;;;;;0.10;0.10;;;16.90;99.90;;;;;;5108724;27;20027;-68
2023/08/08 09:16:09;;;;;;;0.40;0.40;;;16.90;99.90;;;;;;5098910;27;20173;-68
2023/08/08 09:18:38;;;;;;;0.20;0.20;;;16.80;99.90;;;;;;5100740;27;20050;-69
2023/08/08 09:21:07;;;;;;;0.30;0.30;;;16.80;99.90;;;;;;5133385;27;20044;-67
2023/08/08 09:23:33;;;;;;;0.20;0.20;;;16.80;99.90;;;;;;5102041;28;20071;-67
2023/08/08 09:25:58;;;;;;;0.10;0.10;;;16.80;99.90;;;;;;5101114;27;20873;-68
2023/08/08 09:28:25;;;;;;;0.10;0.10;;;17.00;99.90;;;;;;5094966;27;20367;-67
2023/08/08 09:30:51;;;;;;;0.10;0.10;;;17.10;99.90;;;;;;5111885;27;20092;-68
2023/08/08 09:33:18;;;;;;;0.20;0.20;;;17.30;99.90;;;;;;5102859;27;20085;-67
2023/08/08 09:35:45;;;;;;;0.10;0.10;;;17.50;99.90;;;;;;5108883;27;20068;-67
2023/08/08 09:38:11;;;;;;;0.10;0.10;;;17.50;99.90;;;;;;5122838;27;20447;-66
2023/08/08 09:40:36;;;;;;;0.57;0.55;;;17.50;99.90;;;;;;5105387;27;20035;-68
2023/08/08 09:43:02;;;;;;;0.25;0.25;;;17.50;99.90;;;;;;5093768;28;20063;-69
2023/08/08 09:45:39;;;;;;;0.20;0.20;;;17.30;99.90;;;;;;5124187;27;20031;-68
2023/08/08 09:48:06;;;;;;;0.10;0.10;;;16.90;99.90;;;;;;5138254;27;20031;-68
2023/08/08 09:50:34;;;;;;;0.77;0.20;;;16.50;99.90;;;;;;5111039;27;20027;-69
2023/08/08 09:53:01;;;;;;;0.10;0.10;;;16.10;99.90;;;;;;5111533;27;20387;-69
2023/08/08 09:55:28;;;;;;;0.20;0.20;;;15.90;99.90;;;;;;5104267;28;20138;-70
2023/08/08 09:57:54;;;;;;;0.10;0.10;;;15.90;99.90;;;;;;5101905;28;20051;-68
2023/08/08 10:00:20;;;;;;;0.20;0.10;;;16.10;99.90;;;;;;5093440;27;20057;-70
2023/08/08 10:02:47;;;;;;;0.25;0.10;;;16.20;99.90;;;;;;5118318;28;20083;-69
2023/08/08 10:05:15;;;;;;;0.10;0.10;;;16.40;99.90;;;;;;5102971;28;20112;-68
2023/08/08 10:07:42;;;;;;;0.10;0.10;;;16.60;99.90;;;;;;5107111;28;20046;-68
2023/08/08 10:10:09;;;;;;;0.10;0.10;;;16.70;99.90;;;;;;5098778;28;20131;-68
2023/08/08 10:12:39;;;;;;;0.32;0.20;;;16.70;99.90;;;;;;5107167;28;20042;-67
2023/08/08 10:15:09;;;;;;;0.50;0.25;;;16.80;99.90;;;;;;5101966;28;20039;-67
2023/08/08 10:17:37;;;;;;;0.10;0.10;;;17.10;99.90;;;;;;5095361;28;20050;-68
2023/08/08 10:20:11;;;;;;;0.17;0.17;;;17.50;99.90;;;;;;5132782;27;20386;-69
2023/08/08 10:22:41;;;;;;;0.30;0.20;;;17.40;99.90;;;;;;5112573;28;20047;-67
2023/08/08 10:25:08;;;;;;;0.10;0.10;;;17.20;99.90;;;;;;5120693;28;20035;-65
2023/08/08 10:27:35;;;;;;;0.20;0.20;;;16.90;99.90;;;;;;5091749;28;20552;-68
2023/08/08 10:30:03;;;;;;;1.13;0.80;;;16.60;99.90;;;;;;5108862;28;20085;-66
2023/08/08 10:32:37;;;;;;;0.20;0.20;;;16.50;99.90;;;;;;5106621;28;20482;-68
2023/08/08 10:35:05;;;;;;;0.10;0.10;;;16.40;99.90;;;;;;5114226;28;20382;-66
2023/08/08 10:37:32;;;;;;;0.30;0.30;;;16.60;99.90;;;;;;5098374;27;20118;-66
2023/08/08 10:39:59;;;;;;;0.20;0.20;;;16.80;99.90;;;;;;5112814;27;20110;-68
2023/08/08 10:42:27;;;;;;;7.88;0.45;;;16.80;99.90;;;;;;5132381;27;20410;-66
2023/08/08 10:44:55;;;;;;;0.10;0.10;;;16.70;99.90;;;;;;5095731;27;20095;-67
2023/08/08 10:47:36;;;;;;;0.10;0.10;;;16.50;99.90;;;;;;5106116;27;20039;-66
2023/08/08 10:50:13;;;;;;;0.55;0.55;;;16.40;99.90;;;;;;5102276;27;20046;-66
2023/08/08 10:53:00;;;;;;;0.65;0.65;;;16.30;99.90;;;;;;5104710;27;20043;-67
2023/08/08 10:55:33;;;;;;;1.70;0.47;;;16.30;99.90;;;;;;5125861;27;20113;-69
2023/08/08 10:58:10;;;;;;;0.10;0.10;;;16.50;99.90;;;;;;5101610;27;20461;-69
2023/08/08 11:00:39;;;;;;;0.10;0.10;;;16.50;99.90;;;;;;5103530;27;20411;-67
2023/08/08 11:03:05;;;;;;;0.10;0.10;;;16.50;99.90;;;;;;5105991;27;20069;-66
2023/08/08 11:05:33;;;;;;;0.10;0.10;;;16.40;99.90;;;;;;5105625;27;20042;-65
2023/08/08 11:08:00;;;;;;;4.38;0.30;;;16.50;99.90;;;;;;5113930;27;20257;-66
2023/08/08 11:10:30;;;;;;;0.20;0.20;;;16.80;99.90;;;;;;5111504;27;20509;-68
2023/08/08 11:13:02;;;;;;;0.00;0.00;;;17.10;99.90;;;;;;5106471;27;20512;-69
2023/08/08 11:15:29;;;;;;;0.10;0.10;;;17.20;99.90;;;;;;5128159;27;20080;-66
2023/08/08 11:17:56;;;;;;;0.32;0.20;;;17.20;99.90;;;;;;5113352;27;20131;-68
2023/08/08 11:20:23;;;;;;;0.10;0.10;;;17.10;99.90;;;;;;5115410;27;20483;-70
2023/08/08 11:22:53;;;;;;;0.10;0.10;;;17.20;99.90;;;;;;5107774;28;20040;-67
2023/08/08 11:25:19;;;;;;;0.38;0.13;;;17.50;99.90;;;;;;5105566;27;20044;-67
2023/08/08 11:27:52;;;;;;;0.10;0.10;;;17.40;99.90;;;;;;5120015;27;20034;-67
2023/08/08 11:30:19;;;;;;;0.30;0.30;;;17.20;99.90;;;;;;5113016;27;20103;-67
2023/08/08 11:32:46;;;;;;;0.20;0.20;;;17.00;99.90;;;;;;5115339;27;20382;-66
2023/08/08 11:35:12;;;;;;;0.10;0.10;;;16.90;99.90;;;;;;5116089;27;20451;-66
2023/08/08 11:37:38;;;;;;;0.10;0.10;;;16.60;99.90;;;;;;5098934;28;20096;-66
2023/08/08 11:40:05;;;;;;;0.20;0.20;;;16.50;99.90;;;;;;5123304;27;20039;-68
2023/08/08 11:42:32;;;;;;;4.75;2.67;;;16.50;99.90;;;;;;5122804;27;20053;-67
2023/08/08 11:44:58;;;;;;;0.00;0.00;;;16.60;99.90;;;;;;5106510;27;20422;-67
2023/08/08 11:47:31;;;;;;;6.65;1.02;;;16.80;99.90;;;;;;5110167;28;20131;-67
2023/08/08 11:50:02;;;;;;;0.28;0.20;;;17.10;99.90;;;;;;5109155;27;20060;-66
2023/08/08 11:52:29;;;;;;;0.03;0.03;;;17.20;99.90;;;;;;5114177;27;20039;-66
2023/08/08 11:54:55;;;;;;;0.20;0.20;;;17.30;99.90;;;;;;5116682;27;20087;-65
2023/08/08 11:57:21;;;;;;;0.17;0.10;;;17.20;99.90;;;;;;5115355;27;20486;-67
2023/08/08 11:59:49;;;;;;;2.00;0.50;;;17.10;99.90;;;;;;5131097;27;20506;-69
2023/08/08 12:02:15;;;;;;;3.40;0.73;;;16.90;99.90;;;;;;5119876;27;20047;-69
2023/08/08 12:04:45;;;;;;;0.10;0.10;;;16.90;99.90;;;;;;5112532;27;20388;-68
2023/08/08 12:07:11;;;;;;;0.15;0.15;;;16.80;99.90;;;;;;5102580;28;20040;-68
2023/08/08 12:09:37;;;;;;;3.63;0.25;;;16.70;99.90;;;;;;5101761;27;20099;-67
2023/08/08 12:12:04;;;;;;;0.20;0.20;;;16.60;99.90;;;;;;5112070;27;20036;-67
2023/08/08 12:14:30;;;;;;;0.50;0.50;;;16.60;99.90;;;;;;5115176;27;20053;-67
2023/08/08 12:16:58;;;;;;;0.10;0.10;;;16.70;99.90;;;;;;5110409;27;20552;-69
2023/08/08 12:19:25;;;;;;;0.25;0.25;;;16.70;99.90;;;;;;5122216;27;20050;-71
2023/08/08 12:21:51;;;;;;;0.52;0.52;;;16.80;99.90;;;;;;5119719;27;20444;-68
2023/08/08 12:24:18;;;;;;;0.70;0.10;;;17.00;99.90;;;;;;5131674;27;20405;-67
2023/08/08 12:26:44;;;;;;;0.88;0.88;;;17.20;99.90;;;;;;5112122;27;20035;-66
2023/08/08 12:29:10;;;;;;;0.20;0.20;;;17.20;99.90;;;;;;5109366;27;20402;-64
2023/08/08 12:31:35;;;;;;;0.10;0.10;;;17.10;99.90;;;;;;5101284;28;20246;-64
2023/08/08 12:34:01;;;;;;;2.60;0.55;;;17.00;99.90;;;;;;5112418;27;20046;-64
2023/08/08 12:36:27;;;;;;;0.10;0.10;;;16.90;99.90;;;;;;5121217;27;20099;-64
2023/08/08 12:38:52;;;;;;;0.25;0.25;;;16.80;99.90;;;;;;5109062;27;20042;-66
2023/08/08 12:41:18;;;;;;;1.95;0.85;;;16.70;99.90;;;;;;5113699;27;20095;-63
2023/08/08 12:43:43;;;;;;;0.10;0.10;;;16.60;99.90;;;;;;5123253;27;20071;-67
2023/08/08 12:46:09;;;;;;;0.38;0.38;;;16.60;99.90;;;;;;5103455;27;20439;-66
2023/08/08 12:48:35;;;;;;;0.10;0.10;;;16.70;99.90;;;;;;5140608;27;20043;-63
2023/08/08 12:51:00;;;;;;;0.00;0.00;;;16.90;99.90;;;;;;5104879;27;20538;-64
2023/08/08 12:53:26;;;;;;;0.20;0.20;;;17.10;99.90;;;;;;5110009;27;20495;-66
2023/08/08 12:55:52;;;;;;;0.10;0.10;;;17.20;99.90;;;;;;5104561;28;20047;-65
2023/08/08 12:58:18;;;;;;;0.10;0.10;;;17.40;99.90;;;;;;5106712;27;20042;-64
2023/08/08 13:00:45;;;;;;;0.47;0.38;;;17.40;99.90;;;;;;5097227;28;20115;-65